createdAt,value
2023-05-05T00:01:50.217Z,100707.68
2023-05-05T00:04:16.762Z,100706.83
2023-05-05T00:06:43.315Z,100711.23
2023-05-05T00:09:09.736Z,100711.77
2023-05-05T00:11:36.174Z,100713.20
2023-05-05T00:14:02.655Z,100714.80
2023-05-05T00:16:29.089Z,100718.70
2023-05-05T00:18:55.555Z,100715.36
2023-05-05T00:21:21.990Z,100721.18
2023-05-05T00:23:48.443Z,100718.04
2023-05-05T00:26:14.907Z,100714.20
2023-05-05T00:28:41.571Z,100712.99
2023-05-05T00:31:08.083Z,100711.96
2023-05-05T00:33:34.574Z,100708.65
2023-05-05T00:36:01.031Z,100711.48
2023-05-05T00:38:27.465Z,100710.45
2023-05-05T00:40:54.010Z,100712.77
2023-05-05T00:43:20.487Z,100709.98
2023-05-05T00:45:47.041Z,100708.77
2023-05-05T00:48:13.995Z,100708.27
2023-05-05T00:50:43.318Z,100709.33
2023-05-05T00:53:09.797Z,100710.05
2023-05-05T00:55:36.349Z,100709.54
2023-05-05T00:58:03.551Z,100709.38
2023-05-05T01:00:30.447Z,100706.41
2023-05-05T01:02:57.127Z,100704.67
2023-05-05T01:05:26.002Z,100704.86
2023-05-05T01:08:00.371Z,100706.27
2023-05-05T01:11:03.136Z,100705.77
2023-05-05T01:13:44.632Z,100703.67
2023-05-05T01:16:18.568Z,100702.95
2023-05-05T01:18:52.452Z,100703.81
2023-05-05T01:21:29.743Z,100700.65
2023-05-05T01:24:14.511Z,100701.02
2023-05-05T01:27:28.697Z,100701.71
2023-05-05T01:30:13.238Z,100701.54
2023-05-05T01:32:48.087Z,100698.73
2023-05-05T01:35:43.753Z,100700.30
2023-05-05T01:38:39.173Z,100699.77
2023-05-05T01:41:13.241Z,100699.42
2023-05-05T01:43:41.036Z,100702.21
2023-05-05T01:46:08.607Z,100697.83
2023-05-05T01:48:35.369Z,100698.17
2023-05-05T01:51:03.102Z,100699.93
2023-05-05T01:53:31.346Z,100694.13
2023-05-05T01:55:58.386Z,100699.90
2023-05-05T01:58:26.897Z,100698.31
2023-05-05T02:00:56.556Z,100699.71
2023-05-05T02:03:24.697Z,100700.58
2023-05-05T02:05:53.815Z,100695.66
2023-05-05T02:08:21.327Z,100698.98
2023-05-05T02:10:49.374Z,100701.60
2023-05-05T02:13:17.094Z,100699.66
2023-05-05T02:15:44.853Z,100700.00
2023-05-05T02:18:12.028Z,100696.66
2023-05-05T02:20:39.774Z,100698.22
2023-05-05T02:23:06.928Z,100697.87
2023-05-05T02:25:43.259Z,100694.00
2023-05-05T02:28:15.278Z,100695.39
2023-05-05T02:30:42.662Z,100693.79
2023-05-05T02:33:13.376Z,100696.23
2023-05-05T02:35:42.101Z,100692.54
2023-05-05T02:38:13.459Z,100690.60
2023-05-05T02:40:43.413Z,100692.52
2023-05-05T02:43:11.619Z,100687.60
2023-05-05T02:45:38.335Z,100690.05
2023-05-05T02:48:05.466Z,100693.55
2023-05-05T02:50:32.994Z,100698.61
2023-05-05T02:53:00.624Z,100702.80
2023-05-05T02:55:36.621Z,100701.05
2023-05-05T02:58:26.634Z,100699.08
2023-05-05T03:01:03.922Z,100698.90
2023-05-05T03:03:54.118Z,100702.03
2023-05-05T03:06:22.690Z,100701.63
2023-05-05T03:08:55.102Z,100700.91
2023-05-05T03:11:31.798Z,100701.42
2023-05-05T03:14:07.370Z,100695.12
2023-05-05T03:16:36.773Z,100697.88
2023-05-05T03:19:04.518Z,100696.64
2023-05-05T03:21:32.486Z,100698.56
2023-05-05T03:23:59.282Z,100697.50
2023-05-05T03:26:25.777Z,100696.95
2023-05-05T03:28:52.226Z,100699.23
2023-05-05T03:31:18.862Z,100701.30
2023-05-05T03:33:45.386Z,100702.34
2023-05-05T03:36:11.831Z,100701.81
2023-05-05T03:38:38.283Z,100700.92
2023-05-05T03:41:04.799Z,100699.14
2023-05-05T03:43:31.288Z,100697.19
2023-05-05T03:45:57.760Z,100700.68
2023-05-05T03:48:24.324Z,100702.95
2023-05-05T03:50:50.842Z,100706.98
2023-05-05T03:53:17.332Z,100705.43
2023-05-05T03:55:43.780Z,100705.27
2023-05-05T03:58:10.271Z,100704.92
2023-05-05T04:00:36.744Z,100700.03
2023-05-05T04:03:03.251Z,100703.20
2023-05-05T04:05:29.747Z,100704.63
2023-05-05T04:07:56.211Z,100709.54
2023-05-05T04:10:22.637Z,100716.21
2023-05-05T04:12:49.224Z,100716.95
2023-05-05T04:15:15.822Z,100723.64
2023-05-05T04:17:42.315Z,100723.84
2023-05-05T04:20:09.529Z,100723.34
2023-05-05T04:22:36.148Z,100725.15
2023-05-05T04:25:02.677Z,100719.59
2023-05-05T04:27:29.219Z,100719.09
2023-05-05T04:29:56.702Z,100718.08
2023-05-05T04:32:23.353Z,100719.88
2023-05-05T04:34:50.512Z,100718.66
2023-05-05T04:37:17.012Z,100718.52
2023-05-05T04:39:43.464Z,100721.16
2023-05-05T04:42:09.998Z,100720.48
2023-05-05T04:44:36.620Z,100722.95
2023-05-05T04:47:03.050Z,100722.80
2023-05-05T04:49:30.256Z,100727.55
2023-05-05T04:51:56.992Z,100731.61
2023-05-05T04:54:23.766Z,100735.14
2023-05-05T04:56:50.492Z,100737.45
2023-05-05T04:59:17.136Z,100742.19
2023-05-05T05:01:43.666Z,100740.27
2023-05-05T05:04:10.217Z,100744.14
2023-05-05T05:06:36.666Z,100743.64
2023-05-05T05:09:03.377Z,100736.62
2023-05-05T05:11:29.888Z,100743.83
2023-05-05T05:13:56.404Z,100741.20
2023-05-05T05:16:25.384Z,100744.36
2023-05-05T05:18:51.910Z,100746.85
2023-05-05T05:21:18.358Z,100746.15
2023-05-05T05:23:44.799Z,100743.87
2023-05-05T05:26:11.420Z,100746.14
2023-05-05T05:28:37.896Z,100746.84
2023-05-05T05:31:04.410Z,100745.25
2023-05-05T05:33:30.916Z,100742.95
2023-05-05T05:35:57.370Z,100746.80
2023-05-05T05:38:23.881Z,100745.19
2023-05-05T05:40:50.312Z,100747.45
2023-05-05T05:43:16.790Z,100751.64
2023-05-05T05:45:43.330Z,100751.26
2023-05-05T05:48:09.869Z,100751.56
2023-05-05T05:50:36.360Z,100756.27
2023-05-05T05:53:02.870Z,100759.39
2023-05-05T05:55:29.365Z,100760.92
2023-05-05T05:57:55.901Z,100768.63
2023-05-05T06:00:22.416Z,100772.48
2023-05-05T06:02:48.960Z,100771.73
2023-05-05T06:05:15.478Z,100768.48
2023-05-05T06:07:41.896Z,100768.60
2023-05-05T06:10:25.950Z,100767.64
2023-05-05T06:12:54.403Z,100762.11
2023-05-05T06:15:20.959Z,100763.63
2023-05-05T06:17:47.500Z,100760.39
2023-05-05T06:20:14.009Z,100763.47
2023-05-05T06:22:40.536Z,100754.94
2023-05-05T06:25:07.330Z,100755.94
2023-05-05T06:27:33.827Z,100754.46
2023-05-05T06:30:00.296Z,100757.41
2023-05-05T06:32:26.779Z,100756.30
2023-05-05T06:34:53.355Z,100752.71
2023-05-05T06:37:19.857Z,100750.17
2023-05-05T06:39:46.398Z,100746.59
2023-05-05T06:42:12.889Z,100748.63
2023-05-05T06:44:39.334Z,100748.55
2023-05-05T06:47:06.028Z,100747.77
2023-05-05T06:49:32.566Z,100749.24
2023-05-05T06:51:59.055Z,100746.30
2023-05-05T06:54:25.540Z,100748.29
2023-05-05T06:56:51.975Z,100747.81
2023-05-05T06:59:18.521Z,100751.55
2023-05-05T07:01:45.065Z,100751.41
2023-05-05T07:04:12.236Z,100750.55
2023-05-05T07:06:38.704Z,100748.27
2023-05-05T07:09:05.153Z,100747.75
2023-05-05T07:11:31.614Z,100748.15
2023-05-05T07:13:58.138Z,100744.09
2023-05-05T07:16:25.271Z,100737.73
2023-05-05T07:18:51.842Z,100738.62
2023-05-05T07:21:18.257Z,100737.05
2023-05-05T07:23:44.735Z,100735.13
2023-05-05T07:26:11.404Z,100734.09
2023-05-05T07:28:37.852Z,100733.92
2023-05-05T07:31:04.348Z,100731.11
2023-05-05T07:33:30.775Z,100734.65
2023-05-05T07:35:57.269Z,100733.75
2023-05-05T07:38:23.801Z,100732.71
2023-05-05T07:40:50.293Z,100735.04
2023-05-05T07:43:16.727Z,100735.40
2023-05-05T07:45:43.355Z,100735.20
2023-05-05T07:48:09.962Z,100739.35
2023-05-05T07:50:36.418Z,100741.20
2023-05-05T07:53:13.803Z,100738.64
2023-05-05T07:55:41.658Z,100738.43
2023-05-05T07:58:08.147Z,100739.27
2023-05-05T08:00:34.588Z,100739.36
2023-05-05T08:03:01.177Z,100742.09
2023-05-05T08:05:27.721Z,100742.69
2023-05-05T08:07:54.245Z,100747.50
2023-05-05T08:10:20.842Z,100742.02
2023-05-05T08:12:47.382Z,100735.68
2023-05-05T08:15:13.910Z,100732.54
2023-05-05T08:17:58.646Z,100730.55
2023-05-05T08:20:28.876Z,100729.89
2023-05-05T08:22:55.374Z,100725.58
2023-05-05T08:25:21.874Z,100723.21
2023-05-05T08:27:48.406Z,100723.36
2023-05-05T08:30:14.991Z,100721.37
2023-05-05T08:32:41.594Z,100725.17
2023-05-05T08:35:08.676Z,100724.80
2023-05-05T08:37:35.732Z,100726.48
2023-05-05T08:40:02.243Z,100732.41
2023-05-05T08:42:37.999Z,100734.24
2023-05-05T08:45:08.403Z,100734.48
2023-05-05T08:47:36.583Z,100730.54
2023-05-05T08:50:03.681Z,100726.94
2023-05-05T08:52:38.194Z,100724.89
2023-05-05T08:55:25.400Z,100721.38
2023-05-05T08:57:56.713Z,100721.08
2023-05-05T09:00:23.952Z,100721.61
2023-05-05T09:02:50.746Z,100716.27
2023-05-05T09:05:17.384Z,100711.81
2023-05-05T09:07:43.917Z,100706.14
2023-05-05T09:10:12.267Z,100705.64
2023-05-05T09:12:39.343Z,100707.86
2023-05-05T09:15:11.061Z,100703.75
2023-05-05T09:17:38.705Z,100705.94
2023-05-05T09:20:10.503Z,100699.23
2023-05-05T09:22:36.926Z,100696.97
2023-05-05T09:25:08.734Z,100693.98
2023-05-05T09:27:36.968Z,100693.09
2023-05-05T09:30:05.397Z,100691.74
2023-05-05T09:32:47.015Z,100688.80
2023-05-05T09:35:13.959Z,100688.84
2023-05-05T09:37:40.565Z,100690.33
2023-05-05T09:40:08.145Z,100683.40
2023-05-05T09:42:38.633Z,100677.11
2023-05-05T09:45:24.794Z,100671.55
2023-05-05T09:47:54.688Z,100668.21
2023-05-05T09:50:23.243Z,100665.84
2023-05-05T09:52:56.714Z,100664.51
2023-05-05T09:55:24.373Z,100664.14
2023-05-05T09:57:51.638Z,100667.20
2023-05-05T10:00:18.751Z,100667.94
2023-05-05T10:02:46.040Z,100670.70
2023-05-05T10:05:14.934Z,100667.90
2023-05-05T10:07:46.877Z,100665.23
2023-05-05T10:10:17.851Z,100668.51
2023-05-05T10:12:46.379Z,100668.44
2023-05-05T10:15:15.607Z,100664.54
2023-05-05T10:17:58.373Z,100659.41
2023-05-05T10:20:33.026Z,100650.05
2023-05-05T10:23:05.667Z,100649.83
2023-05-05T10:25:39.115Z,100649.77
2023-05-05T10:28:08.226Z,100649.38
2023-05-05T10:30:43.020Z,100650.58
2023-05-05T10:33:30.751Z,100645.90
2023-05-05T10:36:03.900Z,100646.92
2023-05-05T10:38:31.928Z,100646.48
2023-05-05T10:41:00.318Z,100640.29
2023-05-05T10:43:29.184Z,100636.42
2023-05-05T10:45:56.694Z,100627.35
2023-05-05T10:49:13.038Z,100619.73
2023-05-05T10:51:41.041Z,100617.85
2023-05-05T10:54:21.285Z,100618.02
2023-05-05T10:56:48.220Z,100614.88
2023-05-05T10:59:36.285Z,100610.25
2023-05-05T11:02:25.073Z,100608.28
2023-05-05T11:05:04.445Z,100610.16
2023-05-05T11:07:31.300Z,100599.64
2023-05-05T11:10:00.232Z,100599.13
2023-05-05T11:12:27.505Z,100595.85
2023-05-05T11:15:28.012Z,100596.04
2023-05-05T11:17:56.408Z,100593.09
2023-05-05T11:20:35.227Z,100594.02
2023-05-05T11:23:05.399Z,100590.06
2023-05-05T11:25:35.011Z,100586.19
2023-05-05T11:28:09.960Z,100588.20
2023-05-05T11:30:56.886Z,100584.08
2023-05-05T11:33:27.679Z,100586.14
2023-05-05T11:36:18.058Z,100587.47
2023-05-05T11:39:03.103Z,100583.02
2023-05-05T11:41:38.591Z,100578.00
2023-05-05T11:44:16.450Z,100573.56
2023-05-05T11:46:53.463Z,100570.55
2023-05-05T11:49:37.562Z,100563.83
2023-05-05T11:52:12.717Z,100562.97
2023-05-05T11:54:44.183Z,100560.55
2023-05-05T11:57:10.516Z,100558.15
2023-05-05T12:00:14.744Z,100555.85
2023-05-05T12:02:41.338Z,100552.59
2023-05-05T12:05:08.085Z,100553.39
2023-05-05T12:07:34.571Z,100548.87
2023-05-05T12:10:01.030Z,100546.66
2023-05-05T12:12:38.834Z,100546.33
2023-05-05T12:15:06.180Z,100547.57
2023-05-05T12:17:37.617Z,100542.04
2023-05-05T12:20:04.445Z,100546.79
2023-05-05T12:22:30.884Z,100542.81
2023-05-05T12:24:59.864Z,100536.44
2023-05-05T12:27:27.716Z,100534.70
2023-05-05T12:30:10.420Z,100537.13
2023-05-05T12:32:36.997Z,100536.11
2023-05-05T12:35:03.830Z,100531.34
2023-05-05T12:37:30.507Z,100524.42
2023-05-05T12:39:56.992Z,100525.16
2023-05-05T12:42:23.697Z,100521.16
2023-05-05T12:44:50.420Z,100520.65
2023-05-05T12:47:32.730Z,100517.05
2023-05-05T12:49:59.857Z,100513.62
2023-05-05T12:52:45.227Z,100506.50
2023-05-05T12:55:12.398Z,100506.13
2023-05-05T12:57:57.819Z,100506.54
2023-05-05T13:00:25.092Z,100504.39
2023-05-05T13:02:51.642Z,100500.28
2023-05-05T13:05:32.175Z,100495.88
2023-05-05T13:07:58.849Z,100492.99
2023-05-05T13:10:25.446Z,100490.19
2023-05-05T13:12:55.400Z,100484.98
2023-05-05T13:15:21.981Z,100484.56
2023-05-05T13:17:48.482Z,100481.19
2023-05-05T13:20:15.021Z,100476.64
2023-05-05T13:22:41.553Z,100475.27
2023-05-05T13:25:08.127Z,100471.48
2023-05-05T13:27:34.667Z,100470.79
2023-05-05T13:30:01.116Z,100467.45
2023-05-05T13:32:27.696Z,100468.78
2023-05-05T13:34:54.165Z,100467.33
2023-05-05T13:37:20.663Z,100465.11
2023-05-05T13:39:47.160Z,100465.58
2023-05-05T13:42:13.600Z,100459.77
2023-05-05T13:44:40.062Z,100460.08
2023-05-05T13:47:06.592Z,100454.34
2023-05-05T13:49:34.288Z,100451.04
2023-05-05T13:52:00.749Z,100446.75
2023-05-05T13:54:27.211Z,100447.34
2023-05-05T13:56:53.645Z,100449.80
2023-05-05T13:59:20.074Z,100444.77
2023-05-05T14:01:46.514Z,100442.70
2023-05-05T14:04:13.013Z,100442.98
2023-05-05T14:06:39.732Z,100440.17
2023-05-05T14:09:06.552Z,100441.83
2023-05-05T14:11:33.314Z,100436.88
2023-05-05T14:13:59.824Z,100436.91
2023-05-05T14:16:26.290Z,100439.19
2023-05-05T14:18:52.897Z,100440.89
2023-05-05T14:21:19.335Z,100436.07
2023-05-05T14:23:45.782Z,100434.58
2023-05-05T14:26:12.272Z,100434.97
2023-05-05T14:28:38.704Z,100427.40
2023-05-05T14:31:05.271Z,100429.53
2023-05-05T14:33:31.717Z,100430.79
2023-05-05T14:35:58.289Z,100426.49
2023-05-05T14:38:24.864Z,100425.91
2023-05-05T14:40:51.364Z,100423.59
2023-05-05T14:43:18.006Z,100424.71
2023-05-05T14:45:44.558Z,100423.48
2023-05-05T14:48:11.106Z,100422.55
2023-05-05T14:50:37.734Z,100423.02
2023-05-05T14:53:04.216Z,100423.75
2023-05-05T14:55:30.742Z,100425.98
2023-05-05T14:57:57.346Z,100420.75
2023-05-05T15:00:23.866Z,100418.48
2023-05-05T15:02:50.506Z,100420.73
2023-05-05T15:05:17.068Z,100420.03
2023-05-05T15:07:43.544Z,100422.77
2023-05-05T15:10:10.555Z,100423.97
2023-05-05T15:12:37.052Z,100420.48
2023-05-05T15:15:03.889Z,100419.36
2023-05-05T15:17:30.395Z,100415.46
2023-05-05T15:19:56.988Z,100414.73
2023-05-05T15:22:23.452Z,100416.14
2023-05-05T15:24:49.999Z,100416.82
2023-05-05T15:27:16.484Z,100414.95
2023-05-05T15:29:42.944Z,100413.33
2023-05-05T15:32:09.455Z,100413.73
2023-05-05T15:34:35.990Z,100412.95
2023-05-05T15:37:02.536Z,100415.92
2023-05-05T15:39:29.071Z,100415.17
2023-05-05T15:41:55.499Z,100413.23
2023-05-05T15:44:21.963Z,100407.23
2023-05-05T15:46:50.379Z,100410.57
2023-05-05T15:49:17.087Z,100409.52
2023-05-05T15:51:43.515Z,100403.06
2023-05-05T15:54:10.020Z,100399.61
2023-05-05T15:56:36.498Z,100398.47
2023-05-05T15:59:02.992Z,100397.19
2023-05-05T16:01:29.685Z,100397.77
2023-05-05T16:03:56.164Z,100393.13
2023-05-05T16:06:22.671Z,100393.02
2023-05-05T16:08:49.110Z,100393.20
2023-05-05T16:11:15.554Z,100394.61
2023-05-05T16:13:41.999Z,100391.31
2023-05-05T16:16:08.493Z,100391.24
2023-05-05T16:18:34.968Z,100388.60
2023-05-05T16:21:01.717Z,100387.92
2023-05-05T16:23:28.234Z,100389.22
2023-05-05T16:25:54.923Z,100388.35
2023-05-05T16:28:21.396Z,100389.61
2023-05-05T16:30:47.897Z,100386.21
2023-05-05T16:33:14.416Z,100388.64
2023-05-05T16:35:46.107Z,100385.27
2023-05-05T16:38:12.995Z,100385.72
2023-05-05T16:40:39.790Z,100386.45
2023-05-05T16:43:06.274Z,100384.99
2023-05-05T16:45:32.731Z,100387.15
2023-05-05T16:48:01.774Z,100389.27
2023-05-05T16:50:28.329Z,100384.73
2023-05-05T16:52:55.015Z,100382.93
2023-05-05T16:55:21.495Z,100383.36
2023-05-05T16:57:47.973Z,100382.59
2023-05-05T17:00:14.833Z,100383.29
2023-05-05T17:02:41.450Z,100384.23
2023-05-05T17:05:08.558Z,100385.96
2023-05-05T17:07:35.316Z,100389.23
2023-05-05T17:10:01.768Z,100382.48
2023-05-05T17:12:28.319Z,100384.23
2023-05-05T17:14:54.774Z,100386.22
2023-05-05T17:17:21.257Z,100388.38
2023-05-05T17:19:47.706Z,100385.23
2023-05-05T17:22:14.152Z,100387.55
2023-05-05T17:24:40.623Z,100385.38
2023-05-05T17:27:07.133Z,100387.48
2023-05-05T17:29:33.582Z,100388.89
2023-05-05T17:32:00.111Z,100386.00
2023-05-05T17:34:26.717Z,100389.35
2023-05-05T17:36:53.182Z,100389.84
2023-05-05T17:39:19.639Z,100390.34
2023-05-05T17:41:46.099Z,100392.48
2023-05-05T17:44:12.600Z,100393.01
2023-05-05T17:46:39.398Z,100394.30
2023-05-05T17:49:06.223Z,100393.55
2023-05-05T17:51:32.741Z,100396.70
2023-05-05T17:53:59.266Z,100399.20
2023-05-05T17:56:25.854Z,100395.98
2023-05-05T17:58:52.310Z,100394.86
2023-05-05T18:01:26.419Z,100394.59
2023-05-05T18:03:52.971Z,100400.91
2023-05-05T18:06:19.672Z,100401.05
2023-05-05T18:08:46.209Z,100403.13
2023-05-05T18:11:12.668Z,100400.79
2023-05-05T18:13:39.164Z,100402.29
2023-05-05T18:16:06.083Z,100401.33
2023-05-05T18:18:32.703Z,100400.38
2023-05-05T18:20:59.173Z,100404.77
2023-05-05T18:23:25.709Z,100404.38
2023-05-05T18:25:52.206Z,100409.49
2023-05-05T18:28:18.731Z,100411.06
2023-05-05T18:30:45.181Z,100413.52
2023-05-05T18:33:11.617Z,100414.74
2023-05-05T18:35:38.069Z,100415.10
2023-05-05T18:38:04.570Z,100417.23
2023-05-05T18:40:31.049Z,100416.69
2023-05-05T18:42:57.503Z,100419.48
2023-05-05T18:45:24.151Z,100418.39
2023-05-05T18:47:50.834Z,100416.42
2023-05-05T18:50:17.414Z,100419.05
2023-05-05T18:52:44.058Z,100424.42
2023-05-05T18:55:10.644Z,100426.50
2023-05-05T18:57:37.326Z,100428.02
2023-05-05T19:00:04.034Z,100429.39
2023-05-05T19:02:30.517Z,100428.61
2023-05-05T19:04:57.103Z,100430.13
2023-05-05T19:07:34.279Z,100432.34
2023-05-05T19:10:01.766Z,100436.38
2023-05-05T19:12:28.249Z,100441.09
2023-05-05T19:14:54.907Z,100440.45
2023-05-05T19:17:21.399Z,100442.30
2023-05-05T19:19:47.881Z,100441.30
2023-05-05T19:22:15.148Z,100439.61
2023-05-05T19:24:41.585Z,100444.44
2023-05-05T19:27:08.131Z,100442.20
2023-05-05T19:29:34.774Z,100441.70
2023-05-05T19:32:01.257Z,100439.95
2023-05-05T19:34:27.727Z,100440.50
2023-05-05T19:36:54.235Z,100442.85
2023-05-05T19:39:20.694Z,100444.60
2023-05-05T19:41:47.274Z,100442.86
2023-05-05T19:44:13.708Z,100438.97
2023-05-05T19:46:40.289Z,100442.35
2023-05-05T19:49:06.838Z,100442.73
2023-05-05T19:51:33.448Z,100442.57
2023-05-05T19:53:59.865Z,100445.04
2023-05-05T19:56:26.349Z,100443.77
2023-05-05T19:59:00.230Z,100443.05
2023-05-05T20:01:28.242Z,100440.16
2023-05-05T20:03:56.216Z,100439.79
2023-05-05T20:06:23.479Z,100438.52
2023-05-05T20:08:50.092Z,100441.14
2023-05-05T20:11:17.347Z,100435.09
2023-05-05T20:13:44.241Z,100434.30
2023-05-05T20:16:10.816Z,100432.48
2023-05-05T20:18:37.422Z,100436.98
2023-05-05T20:21:04.355Z,100439.04
2023-05-05T20:23:30.837Z,100440.22
2023-05-05T20:25:57.378Z,100435.02
2023-05-05T20:28:23.890Z,100434.41
2023-05-05T20:30:50.415Z,100436.44
2023-05-05T20:33:16.918Z,100438.84
2023-05-05T20:35:43.361Z,100441.20
2023-05-05T20:38:09.893Z,100435.96
2023-05-05T20:40:36.513Z,100440.45
2023-05-05T20:43:03.020Z,100436.14
2023-05-05T20:45:29.523Z,100437.29
2023-05-05T20:47:56.165Z,100435.60
2023-05-05T20:50:22.619Z,100431.42
2023-05-05T20:52:49.098Z,100431.86
2023-05-05T20:55:15.932Z,100436.52
2023-05-05T20:57:42.361Z,100437.48
2023-05-05T21:00:09.481Z,100437.78
2023-05-05T21:02:36.218Z,100439.82
2023-05-05T21:05:02.887Z,100439.05
2023-05-05T21:07:30.285Z,100435.42
2023-05-05T21:09:56.880Z,100431.29
2023-05-05T21:12:23.328Z,100428.37
2023-05-05T21:14:49.794Z,100425.11
2023-05-05T21:17:16.275Z,100428.73
2023-05-05T21:19:42.741Z,100429.17
2023-05-05T21:22:09.195Z,100426.95
2023-05-05T21:24:35.651Z,100426.50
2023-05-05T21:27:02.078Z,100423.22
2023-05-05T21:29:28.536Z,100422.91
2023-05-05T21:31:55.304Z,100418.91
2023-05-05T21:34:21.777Z,100415.61
2023-05-05T21:36:48.249Z,100418.53
2023-05-05T21:39:14.706Z,100416.48
2023-05-05T21:41:41.170Z,100417.44
2023-05-05T21:44:07.658Z,100415.76
2023-05-05T21:46:34.197Z,100413.36
2023-05-05T21:49:00.655Z,100409.56
2023-05-05T21:51:27.091Z,100409.44
2023-05-05T21:53:53.513Z,100404.56
2023-05-05T21:56:19.970Z,100406.02
2023-05-05T21:58:46.442Z,100398.33
2023-05-05T22:01:12.889Z,100397.01
2023-05-05T22:03:39.518Z,100396.01
2023-05-05T22:06:06.257Z,100396.60
2023-05-05T22:08:32.740Z,100396.49
2023-05-05T22:10:59.171Z,100393.89
2023-05-05T22:13:25.664Z,100392.17
2023-05-05T22:15:52.149Z,100393.64
2023-05-05T22:18:18.588Z,100393.67
2023-05-05T22:20:45.016Z,100392.13
2023-05-05T22:23:11.505Z,100394.30
2023-05-05T22:25:37.947Z,100395.59
2023-05-05T22:28:04.519Z,100391.57
2023-05-05T22:30:31.159Z,100393.90
2023-05-05T22:32:57.702Z,100392.00
2023-05-05T22:35:24.175Z,100393.09
2023-05-05T22:37:50.634Z,100393.69
2023-05-05T22:40:17.279Z,100398.31
2023-05-05T22:42:43.726Z,100400.46
2023-05-05T22:45:10.983Z,100406.66
2023-05-05T22:47:37.677Z,100410.59
2023-05-05T22:50:04.504Z,100411.69
2023-05-05T22:52:30.981Z,100417.72
2023-05-05T22:54:57.423Z,100415.28
2023-05-05T22:57:24.165Z,100418.13
2023-05-05T22:59:50.739Z,100416.40
2023-05-05T23:02:17.175Z,100414.91
2023-05-05T23:04:44.704Z,100420.06
2023-05-05T23:07:12.484Z,100420.27
2023-05-05T23:09:38.935Z,100417.14
2023-05-05T23:12:05.456Z,100419.59
2023-05-05T23:14:31.964Z,100417.85
2023-05-05T23:16:58.621Z,100415.92
2023-05-05T23:19:25.232Z,100413.80
2023-05-05T23:21:53.521Z,100409.23
2023-05-05T23:24:20.451Z,100409.06
2023-05-05T23:26:46.923Z,100409.26
2023-05-05T23:29:13.423Z,100406.64
2023-05-05T23:31:39.839Z,100406.33
2023-05-05T23:34:06.318Z,100405.11
2023-05-05T23:36:32.779Z,100405.85
2023-05-05T23:38:59.271Z,100400.98
2023-05-05T23:41:25.728Z,100402.05
2023-05-05T23:43:52.143Z,100401.04
2023-05-05T23:46:18.686Z,100403.31
2023-05-05T23:48:45.153Z,100401.58
2023-05-05T23:51:11.594Z,100400.54
2023-05-05T23:53:38.031Z,100400.05
2023-05-05T23:56:04.813Z,100398.66
2023-05-05T23:58:31.278Z,100404.30
